Time;durP1;ratioP1;P1;durP2;ratioP2;P2;SDS_P1;SDS_P2;PMS_P1;PMS_P2;Temp;Humidity;BMP_temperature;BMP_pressure;BME280_temperature;BME280_humidity;BME280_pressure;Samples;Min_cycle;Max_cycle;Signal;HPM_P1;HPM_P2
2022/01/17 00:02:22;;;;;;;79.97;23.80;;;;;;;1.53;100.00;100174.53;5011704;28;20076;-65
2022/01/17 00:04:48;;;;;;;72.95;23.70;;;;;;;1.47;100.00;100174.28;5014607;28;20029;-65
2022/01/17 00:07:14;;;;;;;62.50;21.17;;;;;;;1.50;100.00;100169.22;5010161;28;20045;-65
2022/01/17 00:09:40;;;;;;;74.57;24.92;;;;;;;1.44;100.00;100174.16;5017315;28;20076;-65
2022/01/17 00:12:05;;;;;;;89.30;26.25;;;;;;;1.43;100.00;100172.38;5012968;28;20026;-65
2022/01/17 00:14:38;;;;;;;76.05;24.17;;;;;;;1.55;100.00;100178.09;5013675;28;20093;-65
2022/01/17 00:19:42;;;;;;;71.38;25.33;;;;;;;1.49;100.00;100162.25;5019260;28;20032;-65
2022/01/17 00:22:07;;;;;;;78.20;24.30;;;;;;;1.44;100.00;100168.97;5018966;28;20207;-65
2022/01/17 00:24:33;;;;;;;72.90;22.00;;;;;;;1.53;100.00;100166.75;5022540;28;20025;-65
2022/01/17 00:26:58;;;;;;;90.65;25.90;;;;;;;1.53;100.00;100167.63;5020223;28;20044;-66
2022/01/17 00:29:24;;;;;;;70.47;25.25;;;;;;;1.56;100.00;100161.69;5011951;28;20014;-65
2022/01/17 00:31:50;;;;;;;74.18;23.38;;;;;;;1.51;100.00;100168.38;5022066;28;20096;-65
2022/01/17 00:34:16;;;;;;;77.78;22.60;;;;;;;1.59;100.00;100167.84;5020903;28;20025;-65
2022/01/17 00:36:41;;;;;;;83.50;23.75;;;;;;;1.52;100.00;100162.38;5017592;28;20045;-65
2022/01/17 00:39:06;;;;;;;65.78;21.88;;;;;;;1.49;100.00;100170.03;5015402;28;20361;-65
2022/01/17 00:41:32;;;;;;;86.95;25.02;;;;;;;1.50;100.00;100164.03;5018418;28;20025;-65
2022/01/17 00:43:58;;;;;;;87.50;23.48;;;;;;;1.48;100.00;100170.84;5017757;28;20089;-65
2022/01/17 00:46:23;;;;;;;68.47;23.05;;;;;;;1.39;100.00;100170.50;5021543;28;20022;-65
2022/01/17 00:48:51;;;;;;;79.05;23.40;;;;;;;1.43;100.00;100180.16;5021338;28;20026;-65
2022/01/17 00:51:16;;;;;;;74.85;24.30;;;;;;;1.46;100.00;100182.88;5018796;28;20018;-65
2022/01/17 00:53:42;;;;;;;86.85;23.88;;;;;;;1.45;100.00;100175.91;5016419;28;20045;-65
2022/01/17 00:56:07;;;;;;;73.53;21.85;;;;;;;1.58;100.00;100183.41;5015581;28;20028;-65
2022/01/17 00:58:33;;;;;;;93.43;25.02;;;;;;;1.39;100.00;100168.75;5009142;28;20089;-65
2022/01/17 01:00:58;;;;;;;68.63;21.90;;;;;;;1.45;100.00;100169.03;5016354;28;20026;-65
2022/01/17 01:03:24;;;;;;;63.30;21.58;;;;;;;1.44;100.00;100169.84;5013851;28;20064;-65
2022/01/17 01:05:50;;;;;;;52.30;21.40;;;;;;;1.48;100.00;100157.88;5017607;28;20029;-65
2022/01/17 01:08:15;;;;;;;77.15;22.08;;;;;;;1.42;100.00;100157.63;5006927;28;20213;-65
2022/01/17 01:10:41;;;;;;;64.38;20.80;;;;;;;1.43;100.00;100156.81;5011508;28;20032;-65
2022/01/17 01:13:07;;;;;;;65.15;21.30;;;;;;;1.40;100.00;100151.50;5008760;28;20077;-65
2022/01/17 01:15:44;;;;;;;70.30;22.55;;;;;;;1.40;100.00;100161.88;5010880;28;20029;-65
2022/01/17 01:18:15;;;;;;;79.38;21.48;;;;;;;1.36;100.00;100155.66;5016701;28;20017;-65
2022/01/17 01:28:37;;;;;;;75.30;21.90;;;;;;;1.37;100.00;100172.13;5012748;28;20145;-65
2022/01/17 01:31:07;;;;;;;68.80;19.80;;;;;;;1.24;100.00;100164.66;5021417;28;20321;-65
2022/01/17 01:33:37;;;;;;;77.20;23.45;;;;;;;1.41;100.00;100168.84;5010835;28;20204;-65
2022/01/17 01:36:12;;;;;;;88.13;22.92;;;;;;;1.42;100.00;100175.78;5021117;28;20017;-65
2022/01/17 01:38:40;;;;;;;71.60;24.38;;;;;;;1.37;100.00;100172.13;5014711;28;20210;-65
2022/01/17 01:41:06;;;;;;;62.75;22.58;;;;;;;1.40;100.00;100177.44;5016619;28;20343;-65
2022/01/17 01:43:31;;;;;;;74.50;23.25;;;;;;;1.42;100.00;100170.59;5010768;28;20033;-65
2022/01/17 01:46:01;;;;;;;75.88;21.85;;;;;;;1.39;100.00;100160.13;5007641;28;20056;-65
2022/01/17 01:48:29;;;;;;;84.05;23.73;;;;;;;1.40;100.00;100160.19;5006320;28;20068;-66
2022/01/17 01:50:54;;;;;;;82.93;21.45;;;;;;;1.29;100.00;100168.31;5009789;28;20041;-65
2022/01/17 01:53:22;;;;;;;81.57;23.73;;;;;;;1.39;100.00;100175.69;5020793;28;20068;-65
2022/01/17 01:55:47;;;;;;;62.47;22.52;;;;;;;1.35;100.00;100159.09;5009050;28;20022;-65
2022/01/17 01:58:13;;;;;;;75.10;22.85;;;;;;;1.42;100.00;100166.31;5007366;28;20028;-65
2022/01/17 02:00:38;;;;;;;81.15;21.90;;;;;;;1.48;100.00;100166.56;5014409;28;20013;-65
2022/01/17 02:03:05;;;;;;;74.40;23.85;;;;;;;1.42;100.00;100160.22;5020829;28;20060;-65
2022/01/17 02:05:30;;;;;;;73.93;22.02;;;;;;;1.42;100.00;100160.22;5010812;28;20018;-65
2022/01/17 02:07:56;;;;;;;77.20;21.05;;;;;;;1.35;100.00;100163.38;5017317;28;20303;-65
2022/01/17 02:10:21;;;;;;;72.88;21.77;;;;;;;1.27;100.00;100155.28;5020862;28;20034;-65
2022/01/17 02:12:47;;;;;;;54.72;19.45;;;;;;;1.27;100.00;100159.59;5012734;28;20026;-65
2022/01/17 02:15:15;;;;;;;65.88;20.42;;;;;;;1.35;100.00;100168.56;5016441;28;20029;-65
2022/01/17 02:17:46;;;;;;;66.20;21.50;;;;;;;1.42;100.00;100165.41;5023033;28;20242;-65
2022/01/17 02:20:21;;;;;;;64.57;22.00;;;;;;;1.39;100.00;100165.31;5023616;28;20033;-65
2022/01/17 02:22:47;;;;;;;66.30;20.85;;;;;;;1.38;100.00;100173.88;5018683;28;20053;-65
2022/01/17 02:25:12;;;;;;;57.40;19.77;;;;;;;1.42;100.00;100166.31;5021915;28;20341;-65
2022/01/17 02:27:38;;;;;;;71.55;22.80;;;;;;;1.37;100.00;100174.72;5016356;28;20046;-65
2022/01/17 02:30:05;;;;;;;70.80;20.58;;;;;;;1.35;100.00;100168.56;5008956;28;20237;-65
2022/01/17 02:32:30;;;;;;;57.75;19.08;;;;;;;1.36;100.00;100181.59;5014895;28;20026;-65
2022/01/17 02:35:17;;;;;;;62.45;19.58;;;;;;;1.35;100.00;100184.13;5012999;28;20096;-65
2022/01/17 02:37:42;;;;;;;66.80;19.55;;;;;;;1.34;100.00;100180.69;5014856;28;20018;-65
2022/01/17 02:40:08;;;;;;;63.58;21.00;;;;;;;1.37;100.00;100174.72;5013893;28;20316;-65
2022/01/17 02:42:35;;;;;;;63.22;20.88;;;;;;;1.35;100.00;100173.75;5017263;28;20057;-65
2022/01/17 02:45:11;;;;;;;63.83;17.90;;;;;;;1.35;100.00;100173.75;5015749;28;20018;-65
2022/01/17 02:47:36;;;;;;;66.82;18.85;;;;;;;1.39;100.00;100173.09;5013714;28;20021;-65
2022/01/17 02:50:02;;;;;;;57.58;18.95;;;;;;;1.36;100.00;100175.56;5006536;28;20348;-65
2022/01/17 02:52:27;;;;;;;63.03;20.67;;;;;;;1.36;100.00;100176.41;5012145;28;20085;-65
2022/01/17 02:54:53;;;;;;;60.72;20.80;;;;;;;1.40;100.00;100182.63;5009470;28;20053;-65
2022/01/17 02:57:18;;;;;;;52.90;18.48;;;;;;;1.40;100.00;100190.41;5022340;28;20032;-65
2022/01/17 02:59:44;;;;;;;64.53;20.08;;;;;;;1.35;100.00;100194.50;5011483;28;20042;-65
2022/01/17 03:02:09;;;;;;;66.28;21.75;;;;;;;1.34;100.00;100195.34;5017746;28;20034;-65
2022/01/17 03:04:34;;;;;;;55.17;19.35;;;;;;;1.39;100.00;100188.66;5022951;28;20217;-65
2022/01/17 03:07:00;;;;;;;49.13;16.17;;;;;;;1.41;100.00;100184.41;5013337;28;20033;-65
2022/01/17 03:09:29;;;;;;;63.05;20.58;;;;;;;1.41;100.00;100189.59;5019054;28;20029;-65
2022/01/17 03:11:56;;;;;;;51.80;17.98;;;;;;;1.46;100.00;100188.94;5020853;28;20085;-65
2022/01/17 03:14:21;;;;;;;55.50;18.80;;;;;;;1.48;100.00;100186.41;5017745;28;20026;-65
2022/01/17 03:16:48;;;;;;;54.60;18.13;;;;;;;1.43;100.00;100180.16;5012413;28;20093;-65
2022/01/17 03:19:15;;;;;;;58.83;19.30;;;;;;;1.38;100.00;100179.97;5021855;28;20024;-65
2022/01/17 03:21:41;;;;;;;61.53;18.92;;;;;;;1.40;100.00;100172.25;5017021;28;20037;-65
2022/01/17 03:24:07;;;;;;;69.13;23.00;;;;;;;1.46;100.00;100167.31;5017475;28;20026;-65
2022/01/17 03:26:32;;;;;;;65.18;20.00;;;;;;;1.35;100.00;100163.38;5015802;28;20034;-65
2022/01/17 03:29:02;;;;;;;68.93;20.83;;;;;;;1.41;100.00;100148.97;5012358;28;20061;-65
2022/01/17 03:31:28;;;;;;;53.15;18.60;;;;;;;1.41;100.00;100142.88;5009735;28;20030;-66
2022/01/17 03:33:53;;;;;;;65.35;18.58;;;;;;;1.38;100.00;100145.34;5009719;28;20028;-66
2022/01/17 03:36:19;;;;;;;64.53;19.65;;;;;;;1.39;100.00;100149.75;5016302;28;20052;-66
2022/01/17 03:38:46;;;;;;;70.30;22.05;;;;;;;1.29;100.00;100163.13;5017495;28;20031;-66
2022/01/17 03:41:14;;;;;;;64.68;18.55;;;;;;;1.35;100.00;100164.28;5018483;28;20030;-66
2022/01/17 03:43:40;;;;;;;67.20;23.98;;;;;;;1.27;100.00;100170.00;5012885;28;20022;-66
2022/01/17 03:46:05;;;;;;;56.47;19.48;;;;;;;1.29;100.00;100178.69;5016596;28;20085;-66
2022/01/17 03:48:32;;;;;;;66.22;18.13;;;;;;;1.38;100.00;100176.50;5013765;28;20093;-66
2022/01/17 03:50:59;;;;;;;47.05;16.50;;;;;;;1.33;100.00;100185.81;5009255;28;20030;-66
2022/01/17 03:53:26;;;;;;;72.40;21.48;;;;;;;1.35;100.00;100184.13;5023112;28;20072;-66
2022/01/17 03:55:53;;;;;;;57.15;19.92;;;;;;;1.32;100.00;100181.41;5015450;28;20050;-66
2022/01/17 03:58:19;;;;;;;61.28;19.15;;;;;;;1.25;100.00;100176.81;5019918;28;20022;-66
2022/01/17 04:00:46;;;;;;;61.67;21.45;;;;;;;1.25;100.00;100184.59;5015657;28;20221;-66
2022/01/17 04:03:12;;;;;;;69.85;19.42;;;;;;;1.19;100.00;100181.72;5018496;28;20022;-66
2022/01/17 04:05:38;;;;;;;60.50;17.67;;;;;;;1.22;100.00;100187.06;5019263;28;20084;-66
2022/01/17 04:08:05;;;;;;;66.65;21.10;;;;;;;1.27;100.00;100185.56;5007292;28;20036;-66
2022/01/17 04:10:30;;;;;;;71.97;19.75;;;;;;;1.26;100.00;100184.66;5021501;28;20028;-66
2022/01/17 04:13:01;;;;;;;60.58;18.45;;;;;;;1.26;100.00;100178.56;5010915;28;20034;-66
2022/01/17 04:15:27;;;;;;;64.60;19.10;;;;;;;1.27;100.00;100185.56;5010796;28;20026;-66
2022/01/17 04:17:53;;;;;;;56.15;16.42;;;;;;;1.29;100.00;100186.47;5013051;28;20379;-66
2022/01/17 04:20:26;;;;;;;67.35;20.70;;;;;;;1.26;100.00;100184.66;5016110;28;20314;-66
2022/01/17 04:22:54;;;;;;;60.33;17.75;;;;;;;1.30;100.00;100180.50;5018638;28;20413;-66
2022/01/17 04:25:21;;;;;;;66.57;20.08;;;;;;;1.29;100.00;100189.97;5018366;28;20022;-66
2022/01/17 04:27:46;;;;;;;61.60;18.42;;;;;;;1.32;100.00;100184.00;5020853;28;20325;-66
2022/01/17 04:30:13;;;;;;;59.53;19.15;;;;;;;1.31;100.00;100190.03;5011925;28;20053;-66
2022/01/17 04:32:41;;;;;;;58.35;16.60;;;;;;;1.33;100.00;100185.81;5021052;28;20364;-66
2022/01/17 04:35:06;;;;;;;57.95;17.50;;;;;;;1.34;100.00;100178.09;5014061;28;20321;-66
2022/01/17 04:37:32;;;;;;;62.47;16.88;;;;;;;1.37;100.00;100174.72;5015944;28;20122;-66
2022/01/17 04:39:57;;;;;;;59.75;20.00;;;;;;;1.35;100.00;100181.53;5012916;28;20340;-66
2022/01/17 04:42:27;;;;;;;50.08;17.98;;;;;;;1.31;100.00;100177.06;5013194;28;20304;-66
2022/01/17 04:45:10;;;;;;;46.63;18.30;;;;;;;1.25;100.00;100182.00;5020226;28;20017;-66
2022/01/17 04:47:41;;;;;;;58.38;19.00;;;;;;;1.28;100.00;100183.03;5022286;28;20022;-66
2022/01/17 04:50:32;;;;;;;47.67;16.80;;;;;;;1.34;100.00;100180.69;5015030;28;20258;-66
2022/01/17 04:53:00;;;;;;;52.03;17.92;;;;;;;1.34;100.00;100183.28;5015145;28;20037;-66
2022/01/17 04:55:27;;;;;;;55.22;18.35;;;;;;;1.37;100.00;100174.72;5014151;28;20065;-66
2022/01/17 04:57:56;;;;;;;51.80;16.58;;;;;;;1.40;100.00;100173.16;5025150;28;20021;-67
2022/01/17 05:00:23;;;;;;;58.88;20.13;;;;;;;1.45;100.00;100181.09;5025634;28;20335;-67
2022/01/17 05:02:49;;;;;;;57.13;16.55;;;;;;;1.41;100.00;100184.41;5025334;28;20025;-67
2022/01/17 05:05:14;;;;;;;58.22;16.48;;;;;;;1.41;100.00;100194.78;5025284;28;20033;-67
2022/01/17 05:07:40;;;;;;;60.90;19.00;;;;;;;1.39;100.00;100191.25;5025193;28;20037;-67
2022/01/17 05:10:10;;;;;;;50.42;16.17;;;;;;;1.41;100.00;100189.59;5025170;28;20026;-67
2022/01/17 05:12:36;;;;;;;53.80;18.52;;;;;;;1.45;100.00;100186.28;5025170;28;20310;-67
2022/01/17 05:15:03;;;;;;;58.95;17.52;;;;;;;1.46;100.00;100195.88;5025172;28;20221;-67
2022/01/17 05:20:01;;;;;;;62.28;18.17;;;;;;;1.47;100.00;100189.84;5024570;28;20057;-67
2022/01/17 05:22:31;;;;;;;57.40;17.08;;;;;;;1.43;100.00;100185.34;5025261;28;20092;-67
2022/01/17 05:24:58;;;;;;;69.82;19.00;;;;;;;1.38;100.00;100186.88;5024996;28;20057;-67
2022/01/17 05:27:23;;;;;;;44.70;15.25;;;;;;;1.44;100.00;100189.72;5024795;28;20042;-67
2022/01/17 05:29:49;;;;;;;54.03;16.23;;;;;;;1.43;100.00;100193.13;5024938;28;20221;-67
2022/01/17 05:32:15;;;;;;;54.83;16.63;;;;;;;1.41;100.00;100210.34;5024853;28;20137;-67
2022/01/17 05:34:41;;;;;;;63.00;19.83;;;;;;;1.44;100.00;100213.97;5024796;28;20036;-67
2022/01/17 05:37:08;;;;;;;67.50;17.98;;;;;;;1.47;100.00;100226.16;5025017;28;20240;-67
2022/01/17 05:39:35;;;;;;;52.42;16.98;;;;;;;1.41;100.00;100231.09;5024988;28;20377;-67
2022/01/17 05:42:01;;;;;;;51.05;18.13;;;;;;;1.42;100.00;100214.69;5024704;28;20060;-67
2022/01/17 05:44:26;;;;;;;60.03;17.35;;;;;;;1.40;100.00;100204.28;5024655;28;20284;-67
2022/01/17 05:46:51;;;;;;;62.63;20.55;;;;;;;1.43;100.00;100198.31;5024616;28;20037;-67
2022/01/17 05:49:17;;;;;;;59.50;19.40;;;;;;;1.36;100.00;100191.13;5024504;28;20033;-67
2022/01/17 05:51:42;;;;;;;66.57;20.33;;;;;;;1.37;100.00;100193.78;5023222;28;20129;-67
2022/01/17 05:54:08;;;;;;;50.10;15.40;;;;;;;1.37;100.00;100209.34;5024257;28;20327;-67
2022/01/17 05:56:33;;;;;;;66.15;20.55;;;;;;;1.43;100.00;100203.50;5024493;28;20093;-67
2022/01/17 05:58:59;;;;;;;51.05;16.55;;;;;;;1.46;100.00;100208.84;5024401;28;20018;-67
2022/01/17 06:01:25;;;;;;;53.55;18.33;;;;;;;1.35;100.00;100199.69;5013648;28;20026;-67
2022/01/17 06:03:50;;;;;;;61.30;18.88;;;;;;;1.41;100.00;100199.97;5004740;28;20029;-67
2022/01/17 06:06:16;;;;;;;58.83;18.35;;;;;;;1.41;100.00;100198.25;5004960;28;20113;-67
2022/01/17 06:08:42;;;;;;;46.05;15.52;;;;;;;1.42;100.00;100196.53;5004546;28;20085;-67
2022/01/17 06:11:08;;;;;;;55.45;17.80;;;;;;;1.38;100.00;100194.66;5004601;28;20033;-67
2022/01/17 06:13:33;;;;;;;55.35;15.25;;;;;;;1.45;100.00;100201.84;5004606;28;20029;-67
2022/01/17 06:15:58;;;;;;;59.28;17.15;;;;;;;1.47;100.00;100205.41;5004536;28;20029;-67
2022/01/17 06:18:24;;;;;;;63.22;16.77;;;;;;;1.44;100.00;100207.88;5004543;28;20018;-67
2022/01/17 06:20:50;;;;;;;45.45;16.15;;;;;;;1.44;100.00;100193.19;5004519;28;20073;-67
2022/01/17 06:23:16;;;;;;;54.83;17.30;;;;;;;1.46;100.00;100188.09;5004464;28;20317;-67
2022/01/17 06:25:41;;;;;;;56.53;18.88;;;;;;;1.42;100.00;100191.34;5004376;28;20093;-67
2022/01/17 06:28:06;;;;;;;52.78;16.40;;;;;;;1.55;100.00;100194.50;5004201;28;20042;-67
2022/01/17 06:30:32;;;;;;;56.17;15.45;;;;;;;1.52;100.00;100203.91;5006511;28;20022;-67
2022/01/17 06:32:57;;;;;;;62.08;18.25;;;;;;;1.49;100.00;100214.16;5008509;28;20064;-67
2022/01/17 06:35:23;;;;;;;58.85;15.93;;;;;;;1.47;100.00;100218.38;5008496;28;20089;-67
2022/01/17 06:37:48;;;;;;;49.55;15.90;;;;;;;1.62;100.00;100224.22;5008696;28;20026;-67
2022/01/17 06:40:15;;;;;;;61.25;18.02;;;;;;;1.54;100.00;100243.75;5008394;28;20245;-67
2022/01/17 06:42:42;;;;;;;59.60;19.08;;;;;;;1.47;100.00;100240.03;5008328;28;20318;-67
2022/01/17 06:45:09;;;;;;;65.05;18.05;;;;;;;1.52;100.00;100248.00;5008286;28;20022;-67
2022/01/17 06:47:36;;;;;;;66.78;19.35;;;;;;;1.51;100.00;100243.63;5008382;28;20022;-67
2022/01/17 06:50:04;;;;;;;53.40;17.20;;;;;;;1.54;100.00;100235.97;5008187;28;20022;-67
2022/01/17 06:52:31;;;;;;;61.50;19.00;;;;;;;1.51;100.00;100233.25;5008147;28;20097;-67
2022/01/17 06:54:56;;;;;;;67.82;19.63;;;;;;;1.52;100.00;100248.00;5006972;28;20026;-67
2022/01/17 06:57:23;;;;;;;55.58;17.13;;;;;;;1.54;100.00;100241.16;5009766;28;20030;-67
2022/01/17 06:59:49;;;;;;;62.28;19.77;;;;;;;1.49;100.00;100247.88;5007112;28;20089;-67
2022/01/17 07:02:14;;;;;;;60.95;18.80;;;;;;;1.52;100.00;100240.22;5007026;28;20041;-67
2022/01/17 07:04:40;;;;;;;56.03;17.05;;;;;;;1.50;100.00;100241.84;5007023;28;20026;-67
2022/01/17 07:07:05;;;;;;;58.00;19.42;;;;;;;1.51;100.00;100254.00;5006965;28;20089;-67
2022/01/17 07:09:31;;;;;;;66.55;18.35;;;;;;;1.51;100.00;100261.78;5006458;28;20249;-67
2022/01/17 07:11:59;;;;;;;60.75;19.33;;;;;;;1.48;100.00;100264.25;5006886;28;20033;-67
2022/01/17 07:14:26;;;;;;;63.53;16.73;;;;;;;1.57;100.00;100275.00;5007750;28;20340;-67
2022/01/17 07:16:51;;;;;;;58.83;18.42;;;;;;;1.52;100.00;100277.41;5007746;28;20030;-66
2022/01/17 07:19:16;;;;;;;65.07;17.15;;;;;;;1.52;100.00;100281.75;5007703;28;20268;-66
2022/01/17 07:21:42;;;;;;;64.63;18.10;;;;;;;1.48;100.00;100275.53;5007685;28;20090;-66
2022/01/17 07:24:07;;;;;;;57.03;15.82;;;;;;;1.57;100.00;100298.38;5020958;28;20036;-66
2022/01/17 07:26:33;;;;;;;49.50;15.40;;;;;;;1.53;100.00;100325.91;5026989;28;20092;-66
2022/01/17 07:28:58;;;;;;;54.50;18.60;;;;;;;1.51;100.00;100322.34;5026295;28;20317;-66
2022/01/17 07:31:24;;;;;;;65.93;19.33;;;;;;;1.48;100.00;100310.94;5026879;28;20022;-66
2022/01/17 07:33:49;;;;;;;59.72;15.27;;;;;;;1.59;100.00;100294.16;5027135;28;20049;-66
2022/01/17 07:36:19;;;;;;;53.65;15.68;;;;;;;1.62;100.00;100289.09;5026982;28;20029;-66
2022/01/17 07:38:45;;;;;;;59.65;17.75;;;;;;;1.57;100.00;100300.97;5026887;28;20033;-66
2022/01/17 07:41:11;;;;;;;64.43;19.10;;;;;;;1.57;100.00;100286.28;5025999;28;20359;-66
2022/01/17 07:43:37;;;;;;;57.90;16.15;;;;;;;1.60;100.00;100288.13;5026732;28;20021;-66
2022/01/17 07:46:06;;;;;;;48.95;15.63;;;;;;;1.60;100.00;100298.50;5026844;28;20022;-66
2022/01/17 07:50:59;;;;;;;57.60;16.88;;;;;;;1.69;100.00;100317.06;5027028;28;20028;-66
2022/01/17 07:53:25;;;;;;;42.80;14.63;;;;;;;1.58;100.00;100323.53;5026784;28;20026;-66
2022/01/17 07:55:50;;;;;;;67.22;18.83;;;;;;;1.62;100.00;100320.22;5026715;28;20036;-66
2022/01/17 07:58:16;;;;;;;50.95;16.35;;;;;;;1.51;100.00;100316.28;5026619;28;20017;-66
2022/01/17 08:00:41;;;;;;;49.10;14.27;;;;;;;1.50;100.00;100319.69;5026589;28;20068;-66
2022/01/17 08:03:07;;;;;;;55.42;18.17;;;;;;;1.43;100.00;100322.84;5026516;28;20072;-66
2022/01/17 08:05:33;;;;;;;62.92;19.33;;;;;;;1.55;100.00;100313.88;5026728;28;20026;-66
2022/01/17 08:08:00;;;;;;;61.08;16.65;;;;;;;1.59;100.00;100304.53;5026598;28;20313;-66
2022/01/17 08:10:25;;;;;;;62.28;17.42;;;;;;;1.64;100.00;100293.50;5026597;28;20018;-66
2022/01/17 08:12:51;;;;;;;66.47;19.20;;;;;;;1.61;100.00;100293.38;5026356;28;20383;-66
2022/01/17 08:15:17;;;;;;;49.20;14.98;;;;;;;1.66;100.00;100297.06;5026256;28;20352;-66
2022/01/17 08:17:45;;;;;;;51.08;15.82;;;;;;;1.69;100.00;100312.78;5026195;28;20087;-66
2022/01/17 08:20:11;;;;;;;55.28;15.98;;;;;;;1.72;100.00;100304.22;5026466;28;20028;-66
2022/01/17 08:22:37;;;;;;;47.63;16.00;;;;;;;1.74;100.00;100310.38;5026401;28;20037;-66
2022/01/17 08:25:03;;;;;;;77.00;18.52;;;;;;;1.75;100.00;100302.66;5026041;28;20026;-66
2022/01/17 08:27:28;;;;;;;50.83;15.73;;;;;;;1.80;100.00;100305.41;5025901;28;20293;-66
2022/01/17 08:29:55;;;;;;;50.30;15.38;;;;;;;1.76;100.00;100295.72;5025916;28;20321;-67
2022/01/17 08:32:20;;;;;;;50.15;14.82;;;;;;;1.70;100.00;100298.97;5026214;28;20205;-67
2022/01/17 08:34:46;;;;;;;56.63;20.15;;;;;;;1.74;100.00;100305.19;5026118;28;20045;-67
2022/01/17 08:37:11;;;;;;;58.35;15.65;;;;;;;1.79;100.00;100314.03;5025853;28;20021;-67
2022/01/17 08:39:37;;;;;;;57.55;16.13;;;;;;;1.81;100.00;100318.44;5025833;28;20072;-67
2022/01/17 08:42:10;;;;;;;51.72;16.00;;;;;;;1.78;100.00;100307.06;5025999;28;20018;-67
2022/01/17 08:44:36;;;;;;;54.35;14.60;;;;;;;1.75;100.00;100309.53;5025731;28;20026;-67
2022/01/17 08:47:01;;;;;;;49.03;17.60;;;;;;;1.76;100.00;100303.50;5025666;28;20026;-67
2022/01/17 08:49:27;;;;;;;38.92;14.27;;;;;;;1.81;100.00;100286.44;5025785;28;20090;-67
2022/01/17 08:51:52;;;;;;;49.40;15.60;;;;;;;1.76;100.00;100295.72;5025589;28;20317;-67
2022/01/17 08:54:18;;;;;;;51.30;17.55;;;;;;;1.91;100.00;100309.34;5025364;28;20321;-67
2022/01/17 08:56:43;;;;;;;48.58;15.82;;;;;;;1.90;100.00;100313.63;5025500;28;20050;-67
2022/01/17 08:59:09;;;;;;;45.33;15.32;;;;;;;1.84;100.00;100315.13;5025448;28;20339;-67
2022/01/17 09:01:34;;;;;;;51.70;14.07;;;;;;;1.93;100.00;100312.91;5025392;28;20026;-67
2022/01/17 09:03:59;;;;;;;64.95;18.77;;;;;;;1.93;100.00;100323.28;5025344;28;20313;-67
2022/01/17 09:06:26;;;;;;;53.95;16.55;;;;;;;1.96;100.00;100328.56;5025290;28;20033;-67
2022/01/17 09:08:51;;;;;;;47.08;14.57;;;;;;;1.97;100.00;100340.75;5025431;28;20034;-67
2022/01/17 09:11:17;;;;;;;49.85;15.35;;;;;;;1.99;100.00;100339.09;5025238;28;20219;-67
2022/01/17 09:13:42;;;;;;;50.67;15.18;;;;;;;2.09;100.00;100356.84;5025204;28;20028;-67
2022/01/17 09:16:08;;;;;;;53.92;14.90;;;;;;;2.03;100.00;100361.78;5025391;28;20060;-67
2022/01/17 09:18:34;;;;;;;42.85;14.48;;;;;;;2.09;100.00;100373.31;5025127;28;20340;-67
2022/01/17 09:21:00;;;;;;;55.25;15.38;;;;;;;2.00;100.00;100374.66;5025076;28;20026;-66
2022/01/17 09:23:26;;;;;;;53.00;16.05;;;;;;;2.08;100.00;100370.63;5025028;28;20034;-66
2022/01/17 09:25:51;;;;;;;49.08;14.65;;;;;;;2.17;100.00;100365.84;5024921;28;20116;-66
2022/01/17 09:28:17;;;;;;;42.45;14.25;;;;;;;2.14;100.00;100370.91;5024765;28;20058;-66
2022/01/17 09:30:42;;;;;;;41.33;15.05;;;;;;;2.15;100.00;100372.66;5024915;28;20085;-66
2022/01/17 09:33:08;;;;;;;39.10;16.23;;;;;;;2.09;100.00;100375.03;5024849;28;20026;-66
2022/01/17 09:35:34;;;;;;;49.03;17.08;;;;;;;2.25;100.00;100380.03;5024803;28;20030;-66
2022/01/17 09:38:00;;;;;;;44.63;13.15;;;;;;;2.28;100.00;100374.06;5024794;28;20029;-66
2022/01/17 09:40:26;;;;;;;57.83;15.85;;;;;;;2.21;100.00;100372.91;5024750;28;20030;-67
2022/01/17 09:42:51;;;;;;;49.40;14.23;;;;;;;2.22;100.00;100379.91;5024708;28;20030;-67
2022/01/17 09:45:21;;;;;;;39.33;13.52;;;;;;;2.19;100.00;100390.16;5024692;28;20032;-67
2022/01/17 09:47:47;;;;;;;37.72;13.52;;;;;;;2.30;100.00;100394.09;5024511;28;20021;-67
2022/01/17 09:50:18;;;;;;;36.00;13.57;;;;;;;2.33;100.00;100394.22;5024614;28;20365;-67
2022/01/17 09:52:50;;;;;;;43.40;13.60;;;;;;;2.37;100.00;100411.69;5024847;28;20028;-67
2022/01/17 09:55:21;;;;;;;36.65;12.00;;;;;;;2.34;100.00;100388.19;5024517;28;20025;-67
2022/01/17 09:57:56;;;;;;;44.67;13.57;;;;;;;2.40;100.00;100371.97;5025033;28;20293;-67
2022/01/17 10:00:26;;;;;;;49.88;14.25;;;;;;;2.31;100.00;100380.25;5024430;28;20258;-67
2022/01/17 10:02:54;;;;;;;37.30;13.45;;;;;;;2.38;100.00;100378.81;5024479;28;20028;-67
2022/01/17 10:05:20;;;;;;;41.92;12.57;;;;;;;2.39;100.00;100362.38;5023843;28;20024;-67
2022/01/17 10:08:26;;;;;;;27.98;10.82;;;;;;;2.43;100.00;100385.97;5024522;28;20022;-67
2022/01/17 10:11:02;;;;;;;41.75;13.48;;;;;;;2.45;100.00;100376.53;5024281;28;20033;-67
2022/01/17 10:13:34;;;;;;;45.90;13.30;;;;;;;2.43;100.00;100385.09;5024301;28;20030;-67
2022/01/17 10:15:59;;;;;;;43.58;14.52;;;;;;;2.45;100.00;100393.81;5024556;28;20149;-67
2022/01/17 10:18:54;;;;;;;47.53;13.95;;;;;;;2.43;100.00;100396.34;5024198;28;20017;-67
2022/01/17 10:21:26;;;;;;;41.25;13.32;;;;;;;2.43;100.00;100404.16;5024160;28;20036;-67
2022/01/17 10:24:13;;;;;;;38.45;13.25;;;;;;;2.40;100.00;100403.16;5024349;28;20249;-67
2022/01/17 10:34:57;;;;;;;43.45;13.10;;;;;;;2.50;100.00;100385.38;5024084;28;20103;-67
2022/01/17 10:37:27;;;;;;;38.47;13.27;;;;;;;2.62;100.00;100383.28;5024308;28;20030;-67
2022/01/17 10:39:55;;;;;;;43.47;13.50;;;;;;;2.57;100.00;100379.63;5024030;28;20040;-67
2022/01/17 10:42:24;;;;;;;51.88;14.32;;;;;;;2.64;100.00;100381.63;5024220;28;20321;-67
2022/01/17 10:44:49;;;;;;;47.13;13.80;;;;;;;2.54;100.00;100384.69;5023937;28;20025;-67
2022/01/17 10:47:23;;;;;;;38.70;12.57;;;;;;;2.54;100.00;100384.69;5023897;28;20032;-67
2022/01/17 10:49:59;;;;;;;37.22;12.35;;;;;;;2.57;100.00;100395.22;5023989;28;20084;-67
2022/01/17 10:52:46;;;;;;;41.10;11.32;;;;;;;2.49;100.00;100407.00;5023969;28;20014;-67
2022/01/17 10:55:33;;;;;;;38.10;13.15;;;;;;;2.61;100.00;100417.91;5023910;28;20029;-67
2022/01/17 10:58:02;;;;;;;40.75;12.10;;;;;;;2.80;100.00;100423.00;5023951;28;20036;-67
2022/01/17 11:00:43;;;;;;;34.10;11.90;;;;;;;2.67;100.00;100423.34;5024075;28;20028;-67
2022/01/17 11:03:11;;;;;;;44.90;12.63;;;;;;;2.75;100.00;100421.06;5023834;28;20421;-67
2022/01/17 11:05:43;;;;;;;34.10;13.63;;;;;;;2.71;100.00;100425.22;5024013;28;20063;-67
2022/01/17 11:08:09;;;;;;;42.95;13.70;;;;;;;2.71;100.00;100420.03;5023948;28;20238;-67
2022/01/17 11:10:39;;;;;;;33.90;11.43;;;;;;;2.88;100.00;100418.97;5023979;28;20025;-67
2022/01/17 11:13:12;;;;;;;31.85;10.70;;;;;;;2.95;100.00;100395.00;5023984;28;20030;-67
2022/01/17 11:15:40;;;;;;;41.20;11.98;;;;;;;2.91;100.00;100398.28;5024192;28;20021;-67
2022/01/17 11:18:10;;;;;;;40.72;13.57;;;;;;;3.01;100.00;100397.81;5027664;28;20253;-67
2022/01/17 11:20:36;;;;;;;34.20;11.38;;;;;;;2.98;100.00;100394.22;5027283;28;20026;-67
2022/01/17 11:23:03;;;;;;;42.47;12.90;;;;;;;3.03;100.00;100403.97;5020048;28;20064;-67
2022/01/17 11:25:32;;;;;;;34.38;11.93;;;;;;;3.08;100.00;100407.66;5017604;28;20218;-67
2022/01/17 11:27:59;;;;;;;35.17;11.95;;;;;;;3.01;100.00;100416.03;5015732;28;20436;-67
2022/01/17 11:30:25;;;;;;;41.88;12.05;;;;;;;2.94;100.00;100419.22;5017051;28;20085;-67
2022/01/17 11:32:52;;;;;;;42.70;12.07;;;;;;;2.98;100.00;100421.13;5016734;28;20313;-67
2022/01/17 11:35:19;;;;;;;45.08;14.05;;;;;;;2.93;100.00;100424.34;5017991;28;20014;-67